• Join FlightAware (Why Join?)
  • Login
  • US Flag 
10:50PM EDT


 

Airport Tracker/Info


-or-


 

Live Flight TrackerFlight Track Log ✈ N312BL ✈ 14-May-2013 ✈ KOXC - KSOP

Flight Track Log - Related Links

Times and Time Zones

All times are in EDT time to prevent confusion due to time zone crossing. See the N312BL flight status page for this flight to view local times or setup timezone preferences in your user account.

Time Position Orientation Groundspeed Altitude Reporting Facility
EDT Latitude Longitude Course Direction KTS MPH feet Rate Location/Type
10:53AM 41.4667 -73.1500 153° Southeast 185 213 3,300  Level New York TRACON
10:54AM 41.4167 -73.1333 166° South 219 252 3,600 1,500 Climbing New York TRACON
10:55AM 41.3667 -73.1000 153° Southeast 220 253 6,500 2,640 Climbing New York TRACON
10:56AM 41.3000 -73.0500 151° Southeast 248 285 8,900 1,200 Climbing New York TRACON
10:57AM 41.2333 -72.9833 143° Southeast 298 343 9,100 180 Climbing New York TRACON
10:58AM 41.1323 -72.8548 153° Southeast  Level FlightAware Approximate
10:58AM 41.1667 -72.9167 143° Southeast 305 351 9,400  Level New York TRACON
10:58AM 41.1489 -72.9058 155° Southeast 307 353 9,600 480 Climbing Boston Center
10:59AM 41.0806 -72.8503 148° Southeast 312 359 10,000 180 Climbing Boston Center
11:00AM 41.0078 -72.7839 145° Southeast 318 366 10,000 960 Level Boston Center
11:01AM 40.9539 -72.6983 130° Southeast 312 359 12,000 2,160 Climbing Boston Center
11:02AM 40.8831 -72.6789 168° South 272 313 14,400 2,100 Climbing Boston Center
11:03AM 40.8244 -72.7444 220° Southwest 226 260 16,200 1,680 Climbing Boston Center
11:04AM 40.7658 -72.8072 219° Southwest 246 283 17,800 1,500 Climbing Boston Center
11:05AM 40.7011 -72.8725 217° Southwest 281 323 19,200 1,500 Climbing Boston Center
11:06AM 40.6342 -72.9378 217° Southwest 299 344 20,900 1,680 Climbing Boston Center
11:07AM 40.5733 -72.9975 217° Southwest 293 337 22,600 1,500 Climbing Boston Center
11:08AM 40.5147 -73.0653 221° Southwest 293 337 23,900 1,440 Climbing Boston Center
11:10AM 40.4017 -73.1808 218° Southwest 298 343 26,500 1,440 Climbing Washington Center
11:11AM 40.3364 -73.2486 218° Southwest 298 343 27,800 1,080 Climbing Washington Center
11:12AM 40.2689 -73.3158 217° Southwest 298 343 28,800 1,200 Climbing Washington Center
11:13AM 40.2036 -73.3858 219° Southwest 303 349 30,200 1,140 Climbing Washington Center
11:14AM 40.1381 -73.4450 215° Southwest 308 354 31,100 840 Climbing Washington Center
11:15AM 40.0683 -73.5175 219° Southwest 313 360 32,000 900 Climbing Washington Center
11:16AM 39.9967 -73.5928 219° Southwest 325 374 33,000 900 Climbing Washington Center
11:17AM 39.9250 -73.6597 216° Southwest 325 374 33,800 480 Climbing Washington Center
11:18AM 39.8511 -73.7347 218° Southwest 331 381 34,000 60 Climbing Washington Center
11:19AM 39.7711 -73.8125 217° Southwest 344 396 34,000  Level Washington Center
11:20AM 39.6931 -73.8925 218° Southwest 358 412 34,000  Level Washington Center
11:21AM 39.6131 -73.9728 218° Southwest 364 419 34,000  Level Washington Center
11:22AM 39.5306 -74.0525 217° Southwest 371 427 34,000  Level Washington Center
11:23AM 39.4503 -74.1322 217° Southwest 376 433 34,000  Level Washington Center
11:24AM 39.3658 -74.2144 217° Southwest 376 433 34,000  Level Washington Center
11:25AM 39.2878 -74.2992 220° Southwest 376 433 34,000  Level Washington Center
11:26AM 39.2261 -74.3967 231° Southwest 364 419 34,000  Level Washington Center
11:27AM 39.1625 -74.4942 230° Southwest 358 412 34,000 -60 Level Washington Center
11:28AM 39.0989 -74.5994 232° Southwest 363 418 33,900 -480 Descending Washington Center
11:29AM 39.0350 -74.7017 231° Southwest 369 425 33,100 -1,020 Descending Washington Center
11:30AM 38.9458 -74.7803 214° Southwest 381 438 31,900 -1,260 Descending Washington Center
11:31AM 38.8567 -74.8453 210° Southwest 386 444 30,700 -960 Descending Washington Center
11:32AM 38.7656 -74.9208 213° Southwest 380 437 30,000 -360 Descending Washington Center
11:33AM 38.6742 -74.9881 210° Southwest 380 437 30,000  Level Washington Center
11:34AM 38.5828 -75.0606 212° Southwest 386 444 30,000  Level Washington Center
11:35AM 38.4911 -75.1275 210° Southwest 386 444 30,000  Level Washington Center
11:36AM 38.3997 -75.2050 214° Southwest 386 444 30,000  Level Washington Center
11:37AM 38.3000 -75.2847 212° Southwest 386 444 30,000  Level Washington Center
11:38AM 38.2061 -75.3567 211° Southwest 386 444 30,000  Level Washington Center
11:39AM 38.1147 -75.4256 211° Southwest 386 444 30,000  Level Washington Center
11:40AM 38.0272 -75.5047 215° Southwest 386 444 30,000  Level Washington Center
11:41AM 37.9519 -75.5944 223° Southwest 381 438 30,000  Level Washington Center
11:42AM 37.8750 -75.6839 223° Southwest 381 438 30,000  Level Washington Center
11:43AM 37.7997 -75.7783 225° Southwest 381 438 30,000 -120 Level Washington Center
11:44AM 37.7225 -75.8647 222° Southwest 381 438 29,800 -600 Descending Washington Center
11:45AM 37.6428 -75.9564 222° Southwest 381 438 28,900 -1,020 Descending Washington Center
11:46AM 37.5653 -76.0478 223° Southwest 381 438 27,900 -480 Descending Washington Center
11:47AM 37.4942 -76.1258 221° Southwest 381 438 28,000  Climbing Washington Center
11:48AM 37.4103 -76.2194 222° Southwest 381 438 28,000  Level Washington Center
11:49AM 37.3367 -76.3050 223° Southwest 376 433 28,000  Level Washington Center
11:50AM 37.2611 -76.3931 223° Southwest 371 427 28,000  Level Washington Center
11:51AM 37.1856 -76.4756 221° Southwest 371 427 28,000  Level Washington Center
11:52AM 37.1097 -76.5606 222° Southwest 371 427 28,000  Level Washington Center
11:53AM 37.0381 -76.6483 224° Southwest 371 427 28,000  Level Washington Center
11:54AM 36.9644 -76.7306 222° Southwest 371 427 28,000  Level Washington Center
11:55AM 36.8906 -76.8125 222° Southwest 371 427 28,000 -660 Level Washington Center
11:56AM 36.8186 -76.8969 223° Southwest 371 427 26,800 -1,200 Descending Washington Center
11:57AM 36.7447 -76.9786 222° Southwest 365 420 25,700 -1,020 Descending Washington Center
11:58AM 36.6917 -77.0658 233° Southwest 351 404 24,800 -840 Descending Washington Center
11:59AM 36.6444 -77.1633 239° Southwest 340 391 24,000 -900 Descending Washington Center
12:00PM 36.5950 -77.2708 240° Southwest 340 391 23,100 -1,020 Descending Washington Center
12:01PM 36.5475 -77.3708 239° Southwest 345 397 22,100 -1,080 Descending Washington Center
12:02PM 36.5000 -77.4781 241° Southwest 350 403 21,000 -1,080 Descending Washington Center
12:03PM 36.4503 -77.5828 239° Southwest 355 409 20,000 -960 Descending Washington Center
12:04PM 36.4092 -77.6772 242° Southwest 355 409 19,100 -540 Descending Washington Center
12:05PM 36.3594 -77.7767 238° Southwest 355 409 19,000 -60 Descending Washington Center
12:06PM 36.3139 -77.8706 239° Southwest 343 395 19,000  Level Washington Center
12:07PM 36.2683 -77.9647 239° Southwest 331 381 19,000 -300 Level Washington Center
12:08PM 36.2244 -78.0611 241° Southwest 326 375 18,500 -600 Descending Washington Center
12:09PM 36.1722 -78.1650 238° Southwest 326 375 17,900 -840 Descending Washington Center
12:10PM 36.1264 -78.2614 240° Southwest 343 395 17,000 -960 Descending Washington Center
12:10PM 36.1044 -78.3069 239° Southwest 344 396 16,600 -900 Descending Washington Center
12:11PM 36.0758 -78.3675 240° Southwest 331 381 16,000 -1,020 Descending Washington Center
12:11PM 36.0519 -78.4156 238° Southwest 343 395 15,600 -840 Descending Washington Center
12:12PM 36.0319 -78.4611 242° Southwest 337 388 15,200 -840 Descending Washington Center
12:12PM 36.0056 -78.5139 238° Southwest 340 391 14,800 -840 Descending Washington Center
12:13PM 35.9836 -78.5594 239° Southwest 342 394 14,400 -900 Descending Washington Center
12:13PM 35.9614 -78.6175 245° Southwest 330 380 13,900 -1,020 Descending Washington Center
12:14PM 35.9539 -78.6661 259° West 337 388 13,400 -1,140 Descending Washington Center
12:14PM 35.9419 -78.7244 256° West 315 362 12,800 -1,140 Descending Washington Center
12:15PM 35.9344 -78.7706 259° West 326 375 12,300 -900 Descending Washington Center
12:15PM 35.9228 -78.8186 253° West 316 364 12,000 -300 Descending Washington Center
12:16PM 35.9067 -78.8667 248° West 318 366 12,000 -300 Level Washington Center
12:16PM 35.8703 -78.9064 222° Southwest 303 349 11,700 -1,140 Descending Washington Center
12:17PM 35.8403 -78.9306 213° Southwest 324 373 10,900 -1,680 Descending Washington Center
12:17PM 35.8019 -78.9572 209° Southwest 292 336 10,000 -1,740 Descending Washington Center
12:18PM 35.7722 -78.9814 213° Southwest 304 350 9,200 -1,800 Descending Washington Center
12:18PM 35.7361 -79.0056 209° Southwest 275 316 8,200 -1,800 Descending Washington Center
12:19PM 35.7083 -79.0247 209° Southwest 292 336 7,400 -1,560 Descending Washington Center
12:20PM 35.6425 -79.0603 204° Southwest 273 314 5,700 -1,740 Descending Washington Center
12:21PM 35.5894 -79.0989 211° Southwest 250 288 4,000 -900 Descending Washington Center
12:22PM 35.5358 -79.1400 212° Southwest 213 245 4,000  Level Washington Center
12:23PM 35.4914 -79.1636 203° Southwest 199 229 4,000 -60 Level Washington Center
12:24PM 35.4381 -79.1994 209° Southwest 199 229 3,900 4,020 Descending Washington Center
12:25PM 35.3914 -79.2278 206° Southwest 199 229 12,000 8,340 Climbing Washington Center